Time;durP1;ratioP1;P1;durP2;ratioP2;P2;SDS_P1;SDS_P2;PMS_P1;PMS_P2;Temp;Humidity;BMP_temperature;BMP_pressure;BME280_temperature;BME280_humidity;BME280_pressure;Samples;Min_cycle;Max_cycle;Signal;HPM_P1;HPM_P2
2021/09/01 00:01:25;;;;;;;12.30;11.00;;;;;;;20.65;100.00;99708.09;1700263;83;20936;-73
2021/09/01 00:03:51;;;;;;;12.40;11.10;;;;;;;20.62;100.00;99713.91;1693844;83;21092;-74
2021/09/01 00:06:17;;;;;;;12.93;10.83;;;;;;;20.70;100.00;99709.41;1693436;83;21035;-73
2021/09/01 00:08:44;;;;;;;12.20;10.20;;;;;;;20.66;100.00;99713.64;1681986;83;22040;-73
2021/09/01 00:11:12;;;;;;;14.07;10.20;;;;;;;20.80;100.00;99708.64;1693351;83;21002;-70
2021/09/01 00:13:40;;;;;;;13.30;10.00;;;;;;;20.90;100.00;99719.23;1673391;84;20972;-72
2021/09/01 00:16:06;;;;;;;12.10;10.27;;;;;;;20.83;100.00;99708.88;1693527;83;21541;-74
2021/09/01 00:18:33;;;;;;;13.53;10.93;;;;;;;20.73;100.00;99701.48;1693658;83;21014;-74
2021/09/01 00:20:59;;;;;;;12.33;10.30;;;;;;;20.86;100.00;99712.33;1704736;84;21138;-73
2021/09/01 00:23:26;;;;;;;15.10;11.00;;;;;;;20.81;100.00;99706.25;1691591;84;20869;-70
2021/09/01 00:25:52;;;;;;;13.73;10.17;;;;;;;20.74;100.00;99707.03;1688310;84;21333;-74
2021/09/01 00:28:19;;;;;;;12.30;10.87;;;;;;;20.63;100.00;99710.98;1692804;84;21508;-72
2021/09/01 00:30:45;;;;;;;12.43;11.07;;;;;;;20.60;100.00;99710.71;1692181;84;21054;-73
2021/09/01 00:33:11;;;;;;;15.57;11.27;;;;;;;20.56;100.00;99709.11;1694894;83;21153;-73
2021/09/01 00:35:39;;;;;;;17.07;11.47;;;;;;;20.34;100.00;99717.27;1691588;83;21014;-71
2021/09/01 00:38:05;;;;;;;12.80;10.97;;;;;;;20.30;100.00;99715.38;1692323;84;21303;-73
2021/09/01 00:40:31;;;;;;;15.67;11.23;;;;;;;20.37;100.00;99718.04;1683755;83;21022;-73
2021/09/01 00:42:58;;;;;;;12.23;10.63;;;;;;;20.38;100.00;99718.83;1706760;83;20952;-73
2021/09/01 00:45:24;;;;;;;18.03;11.50;;;;;;;20.44;100.00;99719.13;1692412;83;21221;-70
2021/09/01 00:47:51;;;;;;;13.00;11.37;;;;;;;20.61;100.00;99721.06;1693787;83;21018;-70
2021/09/01 00:50:17;;;;;;;13.00;11.60;;;;;;;20.62;100.00;99717.34;1692035;84;21462;-72
2021/09/01 00:52:44;;;;;;;13.37;10.47;;;;;;;20.39;100.00;99721.77;1684331;83;21043;-72
2021/09/01 00:55:12;;;;;;;12.90;10.83;;;;;;;20.39;100.00;99721.23;1692476;84;20987;-72
2021/09/01 00:57:40;;;;;;;12.43;9.73;;;;;;;20.16;100.00;99718.52;1677279;83;21142;-72
2021/09/01 01:00:12;;;;;;;12.10;10.40;;;;;;;20.12;100.00;99721.95;1692944;83;21031;-72
2021/09/01 01:02:40;;;;;;;15.35;11.35;;;;;;;20.22;100.00;99729.11;1694387;83;21118;-72
2021/09/01 01:05:07;;;;;;;15.03;11.90;;;;;;;20.29;100.00;99726.48;1692272;84;21028;-72
2021/09/01 01:07:33;;;;;;;13.13;11.67;;;;;;;20.46;100.00;99722.32;1691570;83;21521;-73
2021/09/01 01:10:00;;;;;;;12.37;10.97;;;;;;;20.47;100.00;99729.20;1680257;83;21115;-70
2021/09/01 01:12:26;;;;;;;12.70;10.73;;;;;;;20.54;100.00;99729.78;1693208;83;20979;-71
2021/09/01 01:14:53;;;;;;;11.67;10.10;;;;;;;20.31;100.00;99732.86;1680622;83;21477;-71
2021/09/01 01:17:22;;;;;;;11.77;9.87;;;;;;;20.43;100.00;99733.42;1692174;84;21437;-70
2021/09/01 01:19:52;;;;;;;13.43;12.03;;;;;;;20.46;100.00;99730.27;1691874;83;21012;-71
2021/09/01 01:22:22;;;;;;;13.03;11.67;;;;;;;20.44;100.00;99726.27;1691436;83;21565;-71
2021/09/01 01:24:56;;;;;;;16.17;12.67;;;;;;;20.61;100.00;99729.00;1689903;83;21047;-71
2021/09/01 01:27:29;;;;;;;11.87;10.60;;;;;;;20.34;100.00;99722.55;1691563;83;21505;-71
2021/09/01 01:30:18;;;;;;;12.77;10.70;;;;;;;20.38;100.00;99729.42;1692359;83;21567;-71
2021/09/01 01:32:47;;;;;;;11.30;9.67;;;;;;;20.48;100.00;99728.13;1690142;83;21027;-70
2021/09/01 01:35:28;;;;;;;12.90;11.60;;;;;;;20.72;100.00;99727.17;1691417;83;21587;-71
2021/09/01 01:37:56;;;;;;;13.47;12.07;;;;;;;20.72;100.00;99727.67;1740500;81;21525;-72
2021/09/01 01:40:23;;;;;;;11.97;10.70;;;;;;;20.94;100.00;99729.56;1729393;82;21491;-71
2021/09/01 01:42:51;;;;;;;14.63;11.67;;;;;;;20.94;100.00;99722.14;1740430;82;21486;-70
2021/09/01 01:45:18;;;;;;;12.30;10.90;;;;;;;20.89;100.00;99724.27;1740043;82;21355;-72
2021/09/01 01:47:44;;;;;;;15.93;11.03;;;;;;;20.79;100.00;99712.33;1740678;82;22419;-71
2021/09/01 01:50:10;;;;;;;13.13;10.97;;;;;;;20.88;100.00;99718.71;1740481;82;20962;-71
2021/09/01 01:52:37;;;;;;;13.63;11.97;;;;;;;20.85;100.00;99719.23;1729907;82;21020;-71
2021/09/01 01:55:06;;;;;;;13.17;10.77;;;;;;;20.75;100.00;99720.53;1739075;82;21012;-70
2021/09/01 01:57:33;;;;;;;13.63;12.03;;;;;;;20.57;100.00;99718.67;1729896;82;21160;-72
2021/09/01 01:59:59;;;;;;;13.93;11.93;;;;;;;20.47;100.00;99721.79;1740486;82;21133;-72
2021/09/01 02:02:34;;;;;;;14.20;11.97;;;;;;;20.58;100.00;99718.92;1740655;82;20874;-72
2021/09/01 02:04:58;;;;;;;11.93;10.70;;;;;;;20.45;100.00;99719.91;1739381;81;21075;-71
2021/09/01 02:07:26;;;;;;;15.80;11.17;;;;;;;20.56;100.00;99730.83;1745456;81;21076;-72
2021/09/01 02:09:52;;;;;;;12.27;10.97;;;;;;;20.69;100.00;99726.91;1735199;81;21026;-72
2021/09/01 02:12:18;;;;;;;13.67;11.77;;;;;;;20.56;100.00;99730.83;1745884;81;21164;-72
2021/09/01 02:14:45;;;;;;;16.70;12.60;;;;;;;20.57;100.00;99727.94;1735522;81;21530;-70
2021/09/01 02:17:12;;;;;;;14.20;12.77;;;;;;;20.56;100.00;99727.65;1745281;81;21082;-72
2021/09/01 02:19:40;;;;;;;12.33;10.60;;;;;;;20.64;100.00;99730.31;1746097;81;20929;-73
2021/09/01 02:22:07;;;;;;;17.90;11.63;;;;;;;20.56;100.00;99727.65;1745953;81;21074;-72
2021/09/01 02:24:33;;;;;;;12.90;11.50;;;;;;;20.41;100.00;99731.55;1745547;81;21134;-70
2021/09/01 02:27:01;;;;;;;13.07;11.33;;;;;;;20.27;100.00;99733.91;1740587;81;21107;-72
2021/09/01 02:29:29;;;;;;;15.77;12.30;;;;;;;20.42;100.00;99734.48;1746277;81;20954;-74
2021/09/01 02:31:56;;;;;;;14.17;12.67;;;;;;;20.41;100.00;99742.14;1746150;81;21580;-73
2021/09/01 02:34:22;;;;;;;14.30;12.80;;;;;;;20.34;100.00;99739.77;1746507;81;20978;-74
2021/09/01 02:36:49;;;;;;;14.47;12.10;;;;;;;20.29;100.00;99738.93;1744871;81;21104;-70
2021/09/01 02:39:15;;;;;;;13.10;11.40;;;;;;;20.20;100.00;99745.80;1737613;81;21019;-72
2021/09/01 02:41:42;;;;;;;12.43;10.27;;;;;;;20.31;100.00;99739.48;1743903;81;21008;-72
2021/09/01 02:44:08;;;;;;;13.83;12.17;;;;;;;20.28;100.00;99742.64;1745694;81;21049;-74
2021/09/01 02:46:34;;;;;;;13.83;12.13;;;;;;;20.18;100.00;99746.83;1746493;81;21048;-72
2021/09/01 02:49:03;;;;;;;13.87;12.40;;;;;;;20.26;100.00;99750.03;1739637;81;20969;-72
2021/09/01 02:51:29;;;;;;;12.87;10.23;;;;;;;20.33;100.00;99753.23;1734833;81;21137;-71
2021/09/01 02:53:56;;;;;;;13.60;12.20;;;;;;;20.42;100.00;99749.05;1746222;81;20999;-71
2021/09/01 02:56:24;;;;;;;12.80;11.47;;;;;;;20.60;100.00;99754.41;1735743;81;21037;-73
2021/09/01 02:58:51;;;;;;;16.20;12.00;;;;;;;20.61;100.00;99751.52;1744938;81;21311;-71
2021/09/01 03:01:17;;;;;;;14.27;11.90;;;;;;;20.39;100.00;99760.16;1695554;81;21123;-73
2021/09/01 03:03:44;;;;;;;13.73;12.00;;;;;;;20.53;100.00;99760.47;1647466;86;20981;-73
2021/09/01 03:06:11;;;;;;;13.30;11.83;;;;;;;20.53;100.00;99756.00;1647598;86;21030;-73
2021/09/01 03:08:38;;;;;;;14.20;12.70;;;;;;;20.52;100.00;99755.70;1637705;86;21505;-73
2021/09/01 03:11:04;;;;;;;14.43;12.60;;;;;;;20.46;100.00;99754.63;1646688;86;20957;-72
2021/09/01 03:13:32;;;;;;;14.07;12.43;;;;;;;20.38;100.00;99762.51;1613181;88;22277;-72
2021/09/01 03:16:01;;;;;;;15.03;13.43;;;;;;;20.64;100.00;99759.44;1647464;86;20941;-73
2021/09/01 03:18:27;;;;;;;15.00;12.73;;;;;;;20.76;100.00;99758.70;1647875;86;20976;-75
2021/09/01 03:20:54;;;;;;;14.67;13.17;;;;;;;20.82;100.00;99762.14;1645480;86;21987;-74
2021/09/01 03:23:20;;;;;;;13.77;11.83;;;;;;;20.84;100.00;99763.48;1647408;86;21031;-73
2021/09/01 03:25:46;;;;;;;12.43;11.13;;;;;;;20.95;100.00;99767.44;1643152;86;21139;-74
2021/09/01 03:28:13;;;;;;;15.13;12.27;;;;;;;20.79;100.00;99771.39;1647779;86;21008;-76
2021/09/01 03:30:39;;;;;;;14.17;12.20;;;;;;;21.04;100.00;99775.95;1647436;86;21056;-77
2021/09/01 03:33:06;;;;;;;13.23;11.83;;;;;;;21.75;100.00;99775.16;1647050;86;22311;-77
2021/09/01 03:35:32;;;;;;;13.03;11.70;;;;;;;22.68;100.00;99774.28;1646653;86;21098;-76
2021/09/01 03:37:59;;;;;;;14.50;12.47;;;;;;;23.53;100.00;99771.30;1647517;86;21307;-77
2021/09/01 03:40:26;;;;;;;13.20;11.80;;;;;;;24.55;100.00;99762.70;1636160;86;20992;-76
2021/09/01 03:42:52;;;;;;;15.23;12.13;;;;;;;25.20;100.00;99762.30;1647173;86;21091;-76
2021/09/01 03:45:19;;;;;;;19.60;13.33;;;;;;;25.99;100.00;99758.77;1646894;86;20928;-77
2021/09/01 03:47:45;;;;;;;24.13;13.13;;;;;;;26.78;100.00;99761.64;1647223;86;21142;-76
2021/09/01 03:50:13;;;;;;;40.40;16.37;;;;;;;27.34;100.00;99765.13;1647308;86;21366;-77
2021/09/01 03:52:40;;;;;;;30.30;13.30;;;;;;;28.01;100.00;99763.39;1637627;86;21538;-75
2021/09/01 03:55:09;;;;;;;22.13;13.33;;;;;;;28.72;100.00;99763.98;1647130;86;20981;-75
2021/09/01 03:57:36;;;;;;;27.47;13.27;;;;;;;29.12;100.00;99762.47;1636316;86;22224;-73
2021/09/01 04:00:08;;;;;;;19.82;11.68;;;;;;;29.70;99.84;99762.41;1637784;86;20948;-73
2021/09/01 04:02:40;;;;;;;22.93;11.40;;;;;;;30.36;91.02;99764.59;1648455;85;21158;-81
2021/09/01 04:05:08;;;;;;;21.33;12.13;;;;;;;30.76;83.74;99770.86;1647876;86;21423;-73
2021/09/01 04:07:35;;;;;;;27.93;12.43;;;;;;;31.23;74.50;99768.67;1648644;86;21557;-73
2021/09/01 04:10:01;;;;;;;44.73;13.43;;;;;;;31.65;74.40;99767.75;1638371;86;21028;-73
2021/09/01 04:12:28;;;;;;;34.05;13.18;;;;;;;32.31;65.26;99773.45;1648495;86;22271;-73
2021/09/01 04:14:55;;;;;;;47.73;14.58;;;;;;;32.72;59.08;99770.22;1637688;86;22087;-74
2021/09/01 04:17:22;;;;;;;36.28;13.05;;;;;;;32.86;56.13;99767.34;1647933;86;20976;-73
2021/09/01 04:19:49;;;;;;;41.10;12.85;;;;;;;33.29;52.81;99767.13;1647836;86;21107;-74
2021/09/01 04:22:16;;;;;;;28.87;11.18;;;;;;;33.57;50.83;99770.38;1648260;86;21024;-73
2021/09/01 04:24:42;;;;;;;30.23;11.57;;;;;;;33.96;50.53;99759.11;1648407;86;21122;-74
2021/09/01 04:27:09;;;;;;;20.52;11.75;;;;;;;34.37;46.97;99765.05;1647504;86;21394;-76
2021/09/01 04:29:36;;;;;;;20.68;10.45;;;;;;;34.78;46.42;99761.44;1652733;85;20998;-73
2021/09/01 04:32:04;;;;;;;16.97;11.53;;;;;;;35.30;44.06;99761.41;1643825;85;21497;-74
2021/09/01 04:34:31;;;;;;;21.82;11.63;;;;;;;35.40;42.99;99760.81;1627105;86;20992;-73
2021/09/01 04:36:57;;;;;;;15.98;10.93;;;;;;;35.46;41.79;99755.31;1634334;86;21133;-74
2021/09/01 04:39:24;;;;;;;14.25;10.05;;;;;;;35.83;41.54;99762.27;1628027;86;21154;-71
2021/09/01 04:41:50;;;;;;;13.65;10.32;;;;;;;35.90;40.71;99761.59;1642558;85;22178;-74
2021/09/01 04:44:16;;;;;;;10.93;9.78;;;;;;;36.22;39.94;99764.80;1643188;85;21509;-74
2021/09/01 04:46:43;;;;;;;11.05;9.90;;;;;;;36.48;38.88;99759.91;1641814;85;21588;-74
2021/09/01 04:49:10;;;;;;;11.45;10.28;;;;;;;36.68;38.69;99766.53;1662244;84;21091;-73
2021/09/01 04:51:38;;;;;;;11.75;10.55;;;;;;;36.85;37.92;99770.00;1662738;84;21134;-74
2021/09/01 04:54:05;;;;;;;10.30;9.30;;;;;;;36.99;37.22;99763.39;1661719;86;21080;-74
2021/09/01 04:56:31;;;;;;;10.50;9.28;;;;;;;36.94;36.64;99765.09;1661215;85;21066;-75
2021/09/01 04:58:58;;;;;;;10.15;9.25;;;;;;;37.18;36.09;99765.70;1661717;86;20999;-74
2021/09/01 05:01:25;;;;;;;8.55;7.75;;;;;;;37.30;35.84;99777.64;1657581;84;20976;-75
2021/09/01 05:03:52;;;;;;;9.70;8.80;;;;;;;37.09;36.31;99771.45;1642997;87;21153;-75
2021/09/01 05:06:19;;;;;;;9.08;7.87;;;;;;;37.15;35.66;99769.16;1644076;85;20980;-76
2021/09/01 05:08:47;;;;;;;9.30;8.50;;;;;;;37.10;36.17;99765.43;1642991;87;20948;-76
2021/09/01 05:11:13;;;;;;;8.90;7.90;;;;;;;37.30;35.56;99769.48;1643308;85;20999;-76
2021/09/01 05:13:40;;;;;;;9.00;8.10;;;;;;;37.57;35.08;99763.31;1643547;86;20996;-75
2021/09/01 05:16:07;;;;;;;9.18;8.28;;;;;;;37.63;35.00;99768.61;1642174;86;21266;-76
2021/09/01 05:18:34;;;;;;;8.45;7.62;;;;;;;37.59;34.75;99765.09;1644614;86;21469;-78
2021/09/01 05:21:00;;;;;;;8.70;7.75;;;;;;;37.60;34.82;99761.20;1640185;85;21074;-74
2021/09/01 05:23:33;;;;;;;8.08;7.28;;;;;;;37.65;34.22;99759.48;1643300;85;21046;-74
2021/09/01 05:26:04;;;;;;;8.00;7.20;;;;;;;37.55;34.53;99768.37;1642877;86;22860;-72
2021/09/01 05:28:32;;;;;;;7.60;6.87;;;;;;;37.38;34.27;99767.61;1642377;86;21165;-71
2021/09/01 05:31:00;;;;;;;8.08;7.30;;;;;;;37.18;35.08;99773.84;1636858;86;21131;-73
2021/09/01 05:33:29;;;;;;;8.55;7.22;;;;;;;36.89;35.69;99769.45;1642765;85;21075;-74
2021/09/01 05:35:55;;;;;;;7.72;7.03;;;;;;;36.57;35.98;99769.70;1641947;87;21130;-73
2021/09/01 05:38:22;;;;;;;8.70;6.87;;;;;;;35.89;36.06;99767.41;1643261;87;21482;-74
2021/09/01 05:40:50;;;;;;;10.28;8.05;;;;;;;35.33;36.97;99762.05;1642726;87;21117;-75
2021/09/01 05:43:19;;;;;;;7.70;7.00;;;;;;;34.67;38.35;99767.22;1629304;87;20975;-71
2021/09/01 05:45:48;;;;;;;8.03;7.22;;;;;;;34.27;39.25;99769.66;1611735;88;21525;-75
2021/09/01 05:48:15;;;;;;;7.45;6.75;;;;;;;33.99;40.20;99766.55;1643021;86;21012;-71
2021/09/01 05:50:42;;;;;;;8.15;7.25;;;;;;;33.97;40.26;99773.41;1642860;87;20968;-73
2021/09/01 05:53:10;;;;;;;7.47;6.78;;;;;;;33.91;40.68;99770.20;1642800;87;21199;-73
2021/09/01 05:55:41;;;;;;;7.65;6.22;;;;;;;33.80;40.71;99774.02;1642796;87;21115;-74
2021/09/01 05:58:10;;;;;;;7.08;6.25;;;;;;;34.04;40.78;99773.59;1623035;87;21131;-75
2021/09/01 06:00:36;;;;;;;7.62;6.92;;;;;;;34.28;39.46;99773.34;1642087;87;20997;-73
2021/09/01 06:03:18;;;;;;;8.13;7.33;;;;;;;34.17;39.76;99775.61;1642373;85;21040;-74
2021/09/01 06:05:46;;;;;;;7.17;6.47;;;;;;;34.09;39.63;99774.09;1643212;87;21819;-72
2021/09/01 06:08:13;;;;;;;6.60;5.92;;;;;;;33.95;39.83;99771.64;1643228;87;20996;-72
2021/09/01 06:10:40;;;;;;;6.87;6.17;;;;;;;33.75;40.13;99776.96;1643433;86;21047;-73
2021/09/01 06:13:09;;;;;;;6.47;5.75;;;;;;;33.90;39.57;99770.75;1632602;87;22559;-76
2021/09/01 06:15:38;;;;;;;6.12;5.42;;;;;;;33.87;39.30;99770.69;1640134;87;21399;-75
2021/09/01 06:18:08;;;;;;;7.80;5.40;;;;;;;33.81;39.61;99772.87;1632877;87;21171;-74
2021/09/01 06:20:35;;;;;;;4.50;4.10;;;;;;;33.77;38.36;99778.76;1642530;87;21699;-75
2021/09/01 06:23:02;;;;;;;6.75;4.62;;;;;;;33.78;37.79;99776.27;1633038;87;21518;-75
2021/09/01 06:25:29;;;;;;;5.70;5.00;;;;;;;33.90;36.79;99777.50;1643324;87;21878;-75
2021/09/01 06:27:56;;;;;;;4.95;4.45;;;;;;;34.14;37.12;99779.25;1643463;87;21829;-73
2021/09/01 06:30:23;;;;;;;4.83;4.15;;;;;;;34.64;36.34;99782.81;1641954;87;21165;-73
2021/09/01 06:32:51;;;;;;;6.22;4.37;;;;;;;35.05;35.94;99779.95;1632753;87;21012;-74
2021/09/01 06:35:18;;;;;;;5.50;3.85;;;;;;;35.49;35.19;99784.41;1642523;87;21126;-73
2021/09/01 06:37:45;;;;;;;4.75;4.03;;;;;;;35.84;34.22;99782.06;1642945;86;21043;-74
2021/09/01 06:40:14;;;;;;;4.85;3.67;;;;;;;36.23;33.50;99782.63;1643742;86;21016;-73
2021/09/01 06:42:40;;;;;;;3.83;3.10;;;;;;;36.40;32.59;99779.92;1642439;87;21149;-75
2021/09/01 06:45:08;;;;;;;3.47;2.65;;;;;;;36.39;31.20;99778.37;1603222;88;20920;-73
2021/09/01 06:47:42;;;;;;;3.40;2.33;;;;;;;36.48;30.75;99775.39;1643854;87;21442;-73
2021/09/01 06:50:12;;;;;;;4.97;2.58;;;;;;;36.72;30.36;99774.14;1635467;87;20976;-73
2021/09/01 06:52:39;;;;;;;3.70;2.65;;;;;;;37.13;29.69;99775.56;1643440;87;21447;-77
2021/09/01 06:55:06;;;;;;;3.67;2.42;;;;;;;37.32;28.92;99774.56;1642803;87;21720;-75
2021/09/01 06:57:34;;;;;;;4.62;2.65;;;;;;;37.36;28.58;99765.27;1643449;87;21150;-73
2021/09/01 07:00:03;;;;;;;3.20;2.60;;;;;;;37.59;29.05;99769.75;1635817;87;20995;-73
2021/09/01 07:02:30;;;;;;;2.80;2.50;;;;;;;37.87;27.71;99768.56;1641140;86;21590;-73
2021/09/01 07:04:57;;;;;;;3.77;2.25;;;;;;;38.15;27.40;99763.10;1650061;86;20921;-74
2021/09/01 07:07:23;;;;;;;4.35;2.67;;;;;;;38.26;26.80;99759.84;1651268;86;21331;-74
2021/09/01 07:09:50;;;;;;;3.42;2.70;;;;;;;38.37;26.54;99763.42;1651245;85;21725;-72
2021/09/01 07:12:17;;;;;;;3.25;2.20;;;;;;;38.39;26.48;99758.98;1643860;86;21016;-74
2021/09/01 07:14:45;;;;;;;3.05;2.30;;;;;;;38.53;26.35;99752.78;1648511;86;21000;-76
2021/09/01 07:17:11;;;;;;;2.58;1.95;;;;;;;38.61;26.16;99755.16;1645158;85;21157;-73
2021/09/01 07:19:38;;;;;;;3.60;2.25;;;;;;;38.87;25.21;99754.08;1633396;85;21180;-73
2021/09/01 07:22:04;;;;;;;3.85;1.98;;;;;;;38.81;25.19;99750.76;1635111;87;21048;-71
2021/09/01 07:24:31;;;;;;;3.08;2.33;;;;;;;38.77;25.48;99747.22;1639437;87;21035;-75
2021/09/01 07:26:57;;;;;;;3.30;2.30;;;;;;;38.52;24.70;99747.14;1639393;85;21083;-71
2021/09/01 07:29:24;;;;;;;4.22;2.10;;;;;;;38.17;25.28;99744.46;1638358;85;21151;-72
2021/09/01 07:31:50;;;;;;;2.20;2.00;;;;;;;37.94;25.90;99746.10;1634580;85;21169;-72
2021/09/01 07:34:17;;;;;;;2.58;1.70;;;;;;;37.42;25.37;99750.77;1643264;85;21113;-72
2021/09/01 07:36:44;;;;;;;4.22;1.55;;;;;;;37.03;25.66;99754.49;1637412;85;21048;-73
2021/09/01 07:39:10;;;;;;;2.42;1.50;;;;;;;36.92;26.05;99748.34;1629570;85;21118;-75
2021/09/01 07:41:37;;;;;;;2.30;1.80;;;;;;;37.12;26.02;99754.95;1597497;86;21106;-71
2021/09/01 07:44:05;;;;;;;2.62;2.00;;;;;;;37.47;25.23;99752.58;1632925;85;21219;-71
2021/09/01 07:46:33;;;;;;;5.35;1.65;;;;;;;37.42;25.24;99746.69;1635404;85;21004;-71
2021/09/01 07:49:01;;;;;;;4.10;1.82;;;;;;;37.28;25.24;99747.34;1643400;84;21069;-72
2021/09/01 07:51:28;;;;;;;2.58;1.85;;;;;;;36.96;25.02;99751.91;1650852;85;21131;-72
2021/09/01 07:53:55;;;;;;;2.05;1.50;;;;;;;36.60;25.07;99752.09;1651389;86;21091;-73
2021/09/01 07:56:22;;;;;;;1.98;1.50;;;;;;;36.57;25.64;99751.47;1657170;85;22135;-73
2021/09/01 07:58:49;;;;;;;3.12;1.62;;;;;;;37.04;25.28;99747.89;1650369;86;21074;-74
2021/09/01 08:01:16;;;;;;;3.15;1.80;;;;;;;37.47;24.51;99743.64;1643769;86;21162;-73
2021/09/01 08:03:43;;;;;;;2.70;1.98;;;;;;;37.38;24.62;99749.35;1634961;85;21576;-77
2021/09/01 08:06:10;;;;;;;2.27;1.70;;;;;;;37.42;24.39;99750.19;1635447;84;21463;-73
2021/09/01 08:08:39;;;;;;;2.15;1.37;;;;;;;37.60;24.59;99739.45;1646708;84;20999;-74
2021/09/01 08:11:07;;;;;;;2.98;1.75;;;;;;;37.99;23.68;99745.73;1636177;85;20960;-76
2021/09/01 08:13:35;;;;;;;2.20;1.67;;;;;;;38.18;22.95;99735.90;1639698;85;21173;-74
2021/09/01 08:16:02;;;;;;;2.45;1.62;;;;;;;38.38;23.10;99739.14;1642611;85;21080;-76
2021/09/01 08:18:29;;;;;;;1.82;1.40;;;;;;;38.30;22.81;99738.89;1647424;84;21572;-76
2021/09/01 08:20:55;;;;;;;3.40;1.35;;;;;;;37.98;22.89;99738.15;1652280;84;21524;-75
2021/09/01 08:23:22;;;;;;;2.77;1.60;;;;;;;37.45;23.33;99739.15;1654773;85;21046;-75
2021/09/01 08:25:48;;;;;;;3.30;1.85;;;;;;;36.61;23.96;99744.73;1655295;85;21085;-75
2021/09/01 08:28:15;;;;;;;3.95;1.65;;;;;;;36.00;24.45;99740.66;1654514;84;21086;-74
2021/09/01 08:30:41;;;;;;;2.75;1.85;;;;;;;35.60;24.93;99726.87;1653282;85;21122;-75
2021/09/01 08:33:08;;;;;;;2.60;1.87;;;;;;;35.56;25.60;99728.95;1650979;85;21057;-74
2021/09/01 08:35:34;;;;;;;3.80;1.82;;;;;;;35.60;25.10;99731.72;1639221;86;21525;-77
2021/09/01 08:38:01;;;;;;;2.80;1.80;;;;;;;35.98;25.65;99731.28;1643105;86;21074;-75
2021/09/01 08:40:27;;;;;;;2.22;1.60;;;;;;;36.50;24.89;99730.45;1642573;86;20983;-76
2021/09/01 08:42:54;;;;;;;3.15;1.72;;;;;;;36.65;23.44;99731.38;1619919;86;21012;-75
2021/09/01 08:45:20;;;;;;;2.15;1.67;;;;;;;36.56;23.87;99730.10;1655105;84;21189;-76
2021/09/01 08:47:48;;;;;;;2.35;1.60;;;;;;;36.57;24.10;99734.41;1658545;84;21050;-75
2021/09/01 08:50:15;;;;;;;2.58;1.80;;;;;;;36.73;23.64;99717.30;1651075;85;20992;-75
2021/09/01 08:52:43;;;;;;;2.12;1.50;;;;;;;36.99;23.96;99723.21;1650742;85;21020;-73
2021/09/01 08:55:11;;;;;;;2.62;1.60;;;;;;;37.20;22.73;99721.24;1650577;86;21538;-72
2021/09/01 08:57:38;;;;;;;2.37;1.90;;;;;;;37.21;22.98;99719.53;1653580;85;21114;-77
2021/09/01 09:00:06;;;;;;;3.00;1.50;;;;;;;37.02;23.31;99721.11;1641111;85;21018;-72
2021/09/01 09:02:33;;;;;;;2.77;1.90;;;;;;;37.05;23.43;99713.55;1648879;85;21553;-72
2021/09/01 09:05:05;;;;;;;2.85;1.80;;;;;;;37.23;23.67;99715.06;1650140;85;21867;-74
2021/09/01 09:07:53;;;;;;;3.15;1.87;;;;;;;37.43;22.40;99712.34;1626661;86;21075;-75
2021/09/01 09:10:32;;;;;;;2.60;1.95;;;;;;;37.59;22.05;99710.70;1635363;86;21227;-73
2021/09/01 09:13:05;;;;;;;3.30;1.95;;;;;;;37.63;22.68;99709.37;1651195;85;20972;-73
2021/09/01 09:15:32;;;;;;;2.80;2.10;;;;;;;37.79;22.47;99701.68;1652497;84;21075;-72
2021/09/01 09:18:01;;;;;;;2.72;1.60;;;;;;;37.97;22.43;99696.37;1649211;84;38138;-71
2021/09/01 09:20:33;;;;;;;1.98;1.40;;;;;;;38.19;22.08;99698.60;1645318;85;21048;-71
2021/09/01 09:23:06;;;;;;;3.20;2.00;;;;;;;38.21;21.35;99697.63;1633844;85;21163;-71
2021/09/01 09:25:31;;;;;;;1.95;1.70;;;;;;;38.19;21.64;99701.32;1643713;85;20964;-76
2021/09/01 09:28:04;;;;;;;3.20;2.00;;;;;;;38.20;21.11;99692.76;1647146;85;21129;-71
2021/09/01 09:30:45;;;;;;;3.42;1.62;;;;;;;38.11;21.93;99697.80;1635230;85;21165;-73
2021/09/01 09:33:19;;;;;;;;;;;;;;;38.13;21.50;99685.16;1644840;86;21017;-75
2021/09/01 09:35:50;;;;;;;2.33;1.85;;;;;;;38.14;21.50;99692.92;1650937;86;21137;-74
2021/09/01 09:38:43;;;;;;;2.12;1.87;;;;;;;38.17;21.54;99688.66;1651147;86;21034;-73
2021/09/01 09:41:24;;;;;;;2.47;1.90;;;;;;;38.31;21.51;99696.88;1633088;86;21164;-66
2021/09/01 09:43:53;;;;;;;2.15;1.70;;;;;;;38.47;21.54;99687.62;1604332;86;21030;-65
2021/09/01 09:46:21;;;;;;;2.35;1.85;;;;;;;38.54;20.62;99678.11;1577251;87;21146;-68
2021/09/01 09:48:48;;;;;;;2.33;2.00;;;;;;;38.36;20.73;99682.14;1628712;85;21172;-70
2021/09/01 09:51:18;;;;;;;2.85;2.10;;;;;;;38.39;21.37;99680.02;1637017;85;21163;-72
2021/09/01 09:53:49;;;;;;;2.87;2.00;;;;;;;38.30;20.79;99682.28;1635564;84;21139;-69
2021/09/01 09:56:21;;;;;;;1.85;1.60;;;;;;;38.11;21.11;99692.91;1632026;85;21118;-74
2021/09/01 09:58:56;;;;;;;2.30;1.75;;;;;;;38.08;20.91;99695.05;1617075;86;21137;-69
2021/09/01 10:01:26;;;;;;;2.15;1.67;;;;;;;37.94;20.88;99691.09;1634282;86;21175;-69
2021/09/01 10:03:54;;;;;;;2.80;2.00;;;;;;;37.75;21.13;99685.92;1619375;86;20972;-68
2021/09/01 10:06:21;;;;;;;2.20;1.80;;;;;;;37.55;20.92;99690.09;1606049;88;21071;-70
2021/09/01 10:08:53;;;;;;;3.20;2.10;;;;;;;37.45;21.57;99690.98;1603013;88;21109;-68
2021/09/01 10:11:23;;;;;;;2.90;2.10;;;;;;;37.71;21.46;99692.70;1601792;87;21046;-70
2021/09/01 10:13:53;;;;;;;3.47;1.80;;;;;;;37.85;21.61;99696.09;1606894;87;21167;-71
2021/09/01 10:16:25;;;;;;;3.10;1.80;;;;;;;38.09;21.62;99695.25;1611304;87;21126;-70
2021/09/01 10:19:17;;;;;;;3.12;1.90;;;;;;;38.51;21.09;99688.41;1616429;88;21083;-70
2021/09/01 10:22:05;;;;;;;2.50;1.80;;;;;;;38.78;20.67;99683.38;1617533;86;21489;-75
2021/09/01 10:24:37;;;;;;;2.95;1.80;;;;;;;38.86;20.86;99693.92;1616266;88;21113;-70
2021/09/01 10:27:22;;;;;;;2.70;2.05;;;;;;;39.32;20.54;99697.25;1617994;88;21200;-70
2021/09/01 10:30:12;;;;;;;2.35;1.70;;;;;;;39.44;19.74;99687.10;1608103;88;21111;-74
2021/09/01 10:32:45;;;;;;;3.98;2.12;;;;;;;39.43;19.73;99686.33;1665856;85;21123;-68
2021/09/01 10:35:18;;;;;;;3.60;1.95;;;;;;;39.29;20.24;99690.46;1662899;85;21108;-69
2021/09/01 10:37:51;;;;;;;2.75;2.05;;;;;;;39.12;19.85;99694.71;1648106;85;21041;-69
2021/09/01 10:40:26;;;;;;;3.17;2.20;;;;;;;38.86;19.87;99688.47;1658106;85;21811;-68
2021/09/01 10:42:56;;;;;;;2.90;2.05;;;;;;;38.63;20.38;99686.67;1649667;85;21019;-68
2021/09/01 10:45:37;;;;;;;4.28;2.30;;;;;;;38.77;20.83;99681.83;1654509;85;21595;-70
2021/09/01 10:48:08;;;;;;;2.98;2.30;;;;;;;38.86;20.23;99678.16;1640178;85;21642;-68
2021/09/01 10:50:45;;;;;;;3.02;2.25;;;;;;;38.67;20.41;99689.59;1656199;85;21082;-69
2021/09/01 10:53:27;;;;;;;3.47;2.12;;;;;;;38.18;20.66;99683.41;1655554;85;21149;-70
2021/09/01 10:56:01;;;;;;;3.15;2.02;;;;;;;37.67;21.24;99687.05;1659951;85;21664;-71
2021/09/01 10:58:35;;;;;;;2.95;2.20;;;;;;;37.06;21.73;99687.18;1667063;85;21913;-68
2021/09/01 11:01:19;;;;;;;2.60;2.35;;;;;;;36.56;22.48;99681.23;1664939;85;21130;-68
2021/09/01 11:03:56;;;;;;;2.90;2.20;;;;;;;36.60;22.88;99684.80;1653987;85;21046;-69
2021/09/01 11:06:28;;;;;;;3.40;2.02;;;;;;;36.87;22.87;99681.36;1659035;85;21822;-70
2021/09/01 11:09:07;;;;;;;2.27;1.52;;;;;;;37.17;22.45;99675.23;1647962;85;21039;-68
2021/09/01 11:11:38;;;;;;;;;;;;;;;37.52;22.40;99678.02;1649652;85;21017;-67
2021/09/01 11:14:04;;;;;;;3.20;1.90;;;;;;;37.90;21.50;99678.64;1651216;85;20141;-66
2021/09/01 11:16:32;;;;;;;2.33;2.07;;;;;;;38.14;21.97;99678.53;1644928;85;21089;-70
2021/09/01 11:19:10;;;;;;;2.77;2.00;;;;;;;38.15;21.47;99677.37;1655373;85;21893;-70
2021/09/01 11:21:45;;;;;;;3.22;2.27;;;;;;;37.94;21.53;99678.85;1648076;85;21156;-69
2021/09/01 11:24:14;;;;;;;4.12;2.40;;;;;;;37.61;21.17;99679.04;1620633;87;21082;-68
2021/09/01 11:26:41;;;;;;;3.12;2.10;;;;;;;37.19;21.91;99683.00;1627077;87;21086;-69
2021/09/01 11:29:10;;;;;;;3.98;2.02;;;;;;;37.11;21.82;99675.95;1615589;87;21498;-67
2021/09/01 11:31:44;;;;;;;2.50;2.20;;;;;;;36.96;21.28;99677.19;1617947;87;21165;-68